createdAt,value
2023-04-12T00:02:56.183Z,1.30
2023-04-12T00:05:59.857Z,1.20
2023-04-12T00:09:04.027Z,1.20
2023-04-12T00:12:07.921Z,1.10
2023-04-12T00:15:12.382Z,1.90
2023-04-12T00:18:15.048Z,1.30
2023-04-12T00:21:19.521Z,1.40
2023-04-12T00:24:22.173Z,1.87
2023-04-12T00:27:25.750Z,1.30
2023-04-12T00:33:32.277Z,1.60
2023-04-12T00:36:34.912Z,1.10
2023-04-12T00:39:37.508Z,2.67
2023-04-12T00:42:40.383Z,1.20
2023-04-12T00:45:44.720Z,1.02
2023-04-12T00:48:48.349Z,1.40
2023-04-12T00:54:54.817Z,1.50
2023-04-12T00:57:57.798Z,1.63
2023-04-12T01:01:02.403Z,1.40
2023-04-12T01:04:05.738Z,1.50
2023-04-12T01:07:15.271Z,1.60
2023-04-12T01:10:27.585Z,1.90
2023-04-12T01:13:33.676Z,1.87
2023-04-12T01:16:41.636Z,1.90
2023-04-12T01:19:58.967Z,1.30
2023-04-12T01:23:19.260Z,1.73
2023-04-12T01:26:34.464Z,1.20
2023-04-12T01:29:38.754Z,1.43
2023-04-12T01:32:41.969Z,1.97
2023-04-12T01:35:45.612Z,1.45
2023-04-12T01:41:50.697Z,1.50
2023-04-12T01:44:54.562Z,1.60
2023-04-12T01:47:57.552Z,1.60
2023-04-12T01:51:06.385Z,1.10
2023-04-12T01:54:11.857Z,1.23
2023-04-12T01:57:14.678Z,1.17
2023-04-12T02:00:19.528Z,1.67
2023-04-12T02:03:23.218Z,1.70
2023-04-12T02:06:26.246Z,1.70
2023-04-12T02:09:28.835Z,1.60
2023-04-12T02:12:31.562Z,1.97
2023-04-12T02:15:37.192Z,1.50
2023-04-12T02:18:41.526Z,1.33
2023-04-12T02:21:45.603Z,1.50
2023-04-12T02:24:48.155Z,2.13
2023-04-12T02:27:50.835Z,1.60
2023-04-12T02:30:54.919Z,1.63
2023-04-12T02:33:58.041Z,1.30
2023-04-12T02:37:00.876Z,1.58
2023-04-12T02:40:06.042Z,1.67
2023-04-12T02:43:09.071Z,1.57
2023-04-12T02:46:16.745Z,1.73
2023-04-12T02:49:19.374Z,1.90
2023-04-12T02:52:22.623Z,1.73
2023-04-12T02:55:25.833Z,1.58
2023-04-12T02:58:28.541Z,1.65
2023-04-12T03:01:33.772Z,1.60
2023-04-12T03:04:39.912Z,1.80
2023-04-12T03:07:43.436Z,1.80
2023-04-12T03:10:46.075Z,1.85
2023-04-12T03:13:48.708Z,1.80
2023-04-12T03:16:53.623Z,1.97
2023-04-12T03:19:58.041Z,2.03
2023-04-12T03:23:00.727Z,1.53
2023-04-12T03:26:03.801Z,1.97
2023-04-12T03:29:09.596Z,1.90
2023-04-12T03:32:15.064Z,1.83
2023-04-12T03:35:17.658Z,2.47
2023-04-12T03:38:20.325Z,2.20
2023-04-12T03:41:23.489Z,2.37
2023-04-12T03:44:26.920Z,2.42
2023-04-12T03:47:31.778Z,2.40
2023-04-12T03:50:42.041Z,2.63
2023-04-12T03:53:44.944Z,2.57
2023-04-12T03:56:47.598Z,2.58
2023-04-12T04:03:03.665Z,3.20
2023-04-12T04:06:06.826Z,3.00
2023-04-12T04:09:09.432Z,2.10
2023-04-12T04:12:12.171Z,2.17
2023-04-12T04:15:15.547Z,2.30
2023-04-12T04:18:19.650Z,1.83
2023-04-12T04:21:23.746Z,1.97
2023-04-12T04:24:26.486Z,1.67
2023-04-12T04:27:30.707Z,1.83
2023-04-12T04:30:34.080Z,1.60
2023-04-12T04:33:38.949Z,2.50
2023-04-12T04:36:42.616Z,1.57
2023-04-12T04:42:54.239Z,1.70
2023-04-12T04:45:57.132Z,1.87
2023-04-12T04:49:01.195Z,1.35
2023-04-12T04:52:04.320Z,1.70
2023-04-12T04:55:10.598Z,1.88
2023-04-12T04:58:14.365Z,2.30
2023-04-12T05:01:17.807Z,2.00
2023-04-12T05:04:21.964Z,2.30
2023-04-12T05:07:25.782Z,2.30
2023-04-12T05:10:28.317Z,2.30
2023-04-12T05:13:31.020Z,2.10
2023-04-12T05:16:33.678Z,2.00
2023-04-12T05:19:37.782Z,2.43
2023-04-12T05:22:40.494Z,2.60
2023-04-12T05:25:48.383Z,2.13
2023-04-12T05:28:51.031Z,1.80
2023-04-12T05:31:53.761Z,1.90
2023-04-12T05:34:57.642Z,1.60
2023-04-12T05:38:00.333Z,1.53
2023-04-12T05:41:04.227Z,2.47
2023-04-12T05:44:10.036Z,2.30
2023-04-12T05:47:13.198Z,1.97
2023-04-12T05:50:17.522Z,2.50
2023-04-12T05:53:20.106Z,2.07
2023-04-12T05:56:22.692Z,2.17
2023-04-12T05:59:25.528Z,1.73
2023-04-12T06:02:28.391Z,2.00
2023-04-12T06:05:32.504Z,1.95
2023-04-12T06:08:36.580Z,2.00
2023-04-12T06:11:39.960Z,1.87
2023-04-12T06:14:42.710Z,1.83
2023-04-12T06:17:45.327Z,1.90
2023-04-12T06:20:49.585Z,1.80
2023-04-12T06:23:52.238Z,1.63
2023-04-12T06:26:54.831Z,2.27
2023-04-12T06:29:57.605Z,2.57
2023-04-12T06:33:00.317Z,1.77
2023-04-12T06:36:04.612Z,2.00
2023-04-12T06:39:07.573Z,1.50
2023-04-12T06:42:11.240Z,1.50
2023-04-12T06:45:15.514Z,1.80
2023-04-12T06:48:18.217Z,1.77
2023-04-12T06:51:22.220Z,1.53
2023-04-12T06:54:25.112Z,1.27
2023-04-12T06:57:27.834Z,1.60
2023-04-12T07:00:30.501Z,1.77
2023-04-12T07:03:33.798Z,1.60
2023-04-12T07:06:37.939Z,1.48
2023-04-12T07:09:40.628Z,1.33
2023-04-12T07:12:43.338Z,1.40
2023-04-12T07:15:46.790Z,1.20
2023-04-12T07:18:49.798Z,1.77
2023-04-12T07:21:53.647Z,1.45
2023-04-12T07:24:56.256Z,1.00
2023-04-12T07:27:58.957Z,1.47
2023-04-12T07:31:01.474Z,1.30
2023-04-12T07:34:04.287Z,1.37
2023-04-12T07:37:08.340Z,1.40
2023-04-12T07:40:11.202Z,1.30
2023-04-12T07:43:13.913Z,1.48
2023-04-12T07:46:16.651Z,1.40
2023-04-12T07:49:19.473Z,1.20
2023-04-12T07:52:23.496Z,1.00
2023-04-12T07:55:26.046Z,1.10
2023-04-12T07:58:28.713Z,1.20
2023-04-12T08:01:31.409Z,0.90
2023-04-12T08:04:34.226Z,1.10
2023-04-12T08:07:38.113Z,1.10
2023-04-12T08:10:41.308Z,1.20
2023-04-12T08:13:43.962Z,1.00
2023-04-12T08:16:46.645Z,0.80
2023-04-12T08:19:49.254Z,1.38
2023-04-12T08:22:54.570Z,1.00
2023-04-12T08:26:03.171Z,1.00
2023-04-12T08:29:06.351Z,1.83
2023-04-12T08:32:09.586Z,1.27
2023-04-12T08:35:12.487Z,1.30
2023-04-12T08:38:16.421Z,1.33
2023-04-12T08:41:19.487Z,1.77
2023-04-12T08:44:34.832Z,0.80
2023-04-12T08:47:39.395Z,1.33
2023-04-12T08:50:44.446Z,1.27
2023-04-12T08:53:48.536Z,1.13
2023-04-12T08:56:53.098Z,0.87
2023-04-12T08:59:56.099Z,0.87
2023-04-12T09:02:58.724Z,0.90
2023-04-12T09:06:04.062Z,0.90
2023-04-12T09:09:08.377Z,0.83
2023-04-12T09:12:14.276Z,1.10
2023-04-12T09:15:18.307Z,1.50
2023-04-12T09:18:21.347Z,0.83
2023-04-12T09:21:23.988Z,1.27
2023-04-12T09:24:27.984Z,1.30
2023-04-12T09:27:30.737Z,1.73
2023-04-12T09:30:42.635Z,1.63
2023-04-12T09:33:46.071Z,1.30
2023-04-12T09:36:48.767Z,1.75
2023-04-12T09:40:00.158Z,2.05
2023-04-12T09:43:03.708Z,1.30
2023-04-12T09:49:13.701Z,1.27
2023-04-12T09:52:16.872Z,1.20
2023-04-12T09:55:22.690Z,1.33
2023-04-12T09:58:26.639Z,1.10
2023-04-12T10:01:31.109Z,1.53
2023-04-12T10:04:34.191Z,1.50
2023-04-12T10:07:37.617Z,1.10
2023-04-12T10:10:41.673Z,1.05
2023-04-12T10:13:44.398Z,1.00
2023-04-12T10:16:48.100Z,1.60
2023-04-12T10:19:51.624Z,1.03
2023-04-12T10:25:58.197Z,0.90
2023-04-12T10:29:26.662Z,0.90
2023-04-12T10:32:29.551Z,1.03
2023-04-12T10:35:45.906Z,1.48
2023-04-12T10:38:50.313Z,1.07
2023-04-12T10:42:18.572Z,0.93
2023-04-12T10:45:37.824Z,1.03
2023-04-12T10:48:41.780Z,1.03
2023-04-12T10:52:12.093Z,0.90
2023-04-12T10:55:32.691Z,1.07
2023-04-12T10:58:59.482Z,1.10
2023-04-12T11:02:13.432Z,0.97
2023-04-12T11:05:19.182Z,1.07
2023-04-12T11:08:21.860Z,0.97
2023-04-12T11:11:24.482Z,0.82
2023-04-12T11:14:31.476Z,0.90
2023-04-12T11:17:36.952Z,0.77
2023-04-12T11:20:41.443Z,0.70
2023-04-12T11:23:44.610Z,0.60
2023-04-12T11:26:48.003Z,1.05
2023-04-12T11:32:55.564Z,0.73
2023-04-12T11:35:58.297Z,0.40
2023-04-12T11:39:01.671Z,0.68
2023-04-12T11:42:04.680Z,0.60
2023-04-12T11:45:15.869Z,0.68
2023-04-12T11:48:20.569Z,0.50
2023-04-12T11:51:25.054Z,0.50
2023-04-12T11:54:29.433Z,0.77
2023-04-12T11:57:32.083Z,0.50
2023-04-12T12:00:36.305Z,0.60
2023-04-12T12:03:39.129Z,0.60
2023-04-12T12:06:42.228Z,0.45
2023-04-12T12:09:45.793Z,0.60
2023-04-12T12:12:48.627Z,0.73
2023-04-12T12:15:54.229Z,0.50
2023-04-12T12:18:57.854Z,0.60
2023-04-12T12:22:14.316Z,0.53
2023-04-12T12:25:18.816Z,0.40
2023-04-12T12:28:24.747Z,0.70
2023-04-12T12:31:29.320Z,0.67
2023-04-12T12:34:34.011Z,0.50
2023-04-12T12:37:36.429Z,0.67
2023-04-12T12:40:39.990Z,0.50
2023-04-12T12:43:45.924Z,0.70
2023-04-12T12:46:55.527Z,0.53
2023-04-12T12:50:06.345Z,0.57
2023-04-12T12:53:10.335Z,0.50
2023-04-12T12:56:13.913Z,0.70
2023-04-12T12:59:17.702Z,0.60
2023-04-12T13:02:22.106Z,0.50
2023-04-12T13:05:24.956Z,0.50
2023-04-12T13:08:28.155Z,0.65
2023-04-12T13:11:30.846Z,0.30
2023-04-12T13:14:33.500Z,0.50
2023-04-12T13:17:37.559Z,0.40
2023-04-12T13:20:40.347Z,0.83
2023-04-12T13:23:42.972Z,0.40
2023-04-12T13:26:46.039Z,0.40
2023-04-12T13:29:48.634Z,0.47
2023-04-12T13:32:52.797Z,0.57
2023-04-12T13:35:55.580Z,0.70
2023-04-12T13:38:58.310Z,0.65
2023-04-12T13:42:02.130Z,0.40
2023-04-12T13:45:05.379Z,0.40
2023-04-12T13:48:09.974Z,0.73
2023-04-12T13:51:12.685Z,0.50
2023-04-12T13:54:17.322Z,0.47
2023-04-12T13:57:20.026Z,0.40
2023-04-12T14:00:22.744Z,0.40
2023-04-12T14:03:26.928Z,0.40
2023-04-12T14:06:30.108Z,0.40
2023-04-12T14:09:33.802Z,0.50
2023-04-12T14:12:36.546Z,0.53
2023-04-12T14:15:39.212Z,0.57
2023-04-12T14:18:43.209Z,0.40
2023-04-12T14:21:46.023Z,0.40
2023-04-12T14:24:48.783Z,0.40
2023-04-12T14:27:51.974Z,0.65
2023-04-12T14:33:58.670Z,0.53
2023-04-12T14:37:01.556Z,0.37
2023-04-12T14:40:06.390Z,0.70
2023-04-12T14:43:09.006Z,0.43
2023-04-12T14:46:11.836Z,0.52
2023-04-12T14:49:16.002Z,0.40
2023-04-12T14:52:18.783Z,0.80
2023-04-12T14:55:21.361Z,0.45
2023-04-12T14:58:23.936Z,0.30
2023-04-12T15:01:27.500Z,0.45
2023-04-12T15:04:31.636Z,0.30
2023-04-12T15:07:34.550Z,0.30
2023-04-12T15:10:37.452Z,0.30
2023-04-12T15:13:41.267Z,0.40
2023-04-12T15:16:43.970Z,0.60
2023-04-12T15:19:48.018Z,0.85
2023-04-12T15:22:50.671Z,0.60
2023-04-12T15:25:59.870Z,0.40
2023-04-12T15:29:02.540Z,0.70
2023-04-12T15:32:05.306Z,1.30
2023-04-12T15:35:25.283Z,0.63
2023-04-12T15:38:29.147Z,0.33
2023-04-12T15:41:34.990Z,0.60
2023-04-12T15:44:37.531Z,0.70
2023-04-12T15:47:40.752Z,0.50
2023-04-12T15:50:44.988Z,0.28
2023-04-12T15:53:47.777Z,0.30
2023-04-12T15:56:50.708Z,0.45
2023-04-12T15:59:55.446Z,0.40
2023-04-12T16:02:58.497Z,0.43
2023-04-12T16:06:03.613Z,0.55
2023-04-12T16:09:06.826Z,0.50
2023-04-12T16:12:09.676Z,0.50
2023-04-12T16:15:12.886Z,0.28
2023-04-12T16:18:16.005Z,0.85
2023-04-12T16:21:22.171Z,0.63
2023-04-12T16:24:24.848Z,0.33
2023-04-12T16:27:29.427Z,0.40
2023-04-12T16:30:32.858Z,0.40
2023-04-12T16:36:39.280Z,0.70
2023-04-12T16:39:43.639Z,0.30
2023-04-12T16:42:46.489Z,0.40
2023-04-12T16:45:50.002Z,0.52
2023-04-12T16:51:56.563Z,0.40
2023-04-12T16:54:59.187Z,0.60
2023-04-12T16:58:02.519Z,0.52
2023-04-12T17:01:05.530Z,0.40
2023-04-12T17:04:08.267Z,0.40
2023-04-12T17:07:12.216Z,0.40
2023-04-12T17:10:17.161Z,0.50
2023-04-12T17:13:20.611Z,0.60
2023-04-12T17:19:25.956Z,0.50
2023-04-12T17:22:29.993Z,0.70
2023-04-12T17:25:33.094Z,0.67
2023-04-12T17:28:38.822Z,0.60
2023-04-12T17:31:41.912Z,0.60
2023-04-12T17:34:44.832Z,0.70
2023-04-12T17:37:49.035Z,0.65
2023-04-12T17:40:51.809Z,0.70
2023-04-12T17:43:54.673Z,0.80
2023-04-12T17:46:57.429Z,0.85
2023-04-12T17:50:00.079Z,0.70
2023-04-12T17:53:03.964Z,0.60
2023-04-12T17:56:08.055Z,0.80
2023-04-12T17:59:11.362Z,0.50
2023-04-12T18:02:16.280Z,0.60
2023-04-12T18:05:19.518Z,0.50
2023-04-12T18:08:24.953Z,0.73
2023-04-12T18:11:28.312Z,0.70
2023-04-12T18:14:31.162Z,0.40
2023-04-12T18:17:33.728Z,0.50
2023-04-12T18:20:36.556Z,0.70
2023-04-12T18:23:40.518Z,0.50
2023-04-12T18:26:43.270Z,0.60
2023-04-12T18:29:45.892Z,0.80
2023-04-12T18:32:48.544Z,0.60
2023-04-12T18:35:51.764Z,0.38
2023-04-12T18:38:55.692Z,0.60
2023-04-12T18:41:58.319Z,0.43
2023-04-12T18:45:01.760Z,0.40
2023-04-12T18:48:04.576Z,0.70
2023-04-12T18:51:07.460Z,0.60
2023-04-12T18:54:13.748Z,0.40
2023-04-12T18:57:16.906Z,0.70
2023-04-12T19:00:20.499Z,0.70
2023-04-12T19:06:25.650Z,1.10
2023-04-12T19:09:29.652Z,0.60
2023-04-12T19:12:33.081Z,0.50
2023-04-12T19:15:35.676Z,0.60
2023-04-12T19:18:38.298Z,0.57
2023-04-12T19:21:40.832Z,0.60
2023-04-12T19:24:44.976Z,0.93
2023-04-12T19:27:47.599Z,0.53
2023-04-12T19:30:50.278Z,0.60
2023-04-12T19:33:52.937Z,0.50
2023-04-12T19:36:55.592Z,0.60
2023-04-12T19:39:59.592Z,0.50
2023-04-12T19:43:02.795Z,0.70
2023-04-12T19:46:05.716Z,0.65
2023-04-12T19:49:09.596Z,0.43
2023-04-12T19:52:15.206Z,0.60
2023-04-12T19:55:21.302Z,0.50
2023-04-12T19:58:24.903Z,0.57
2023-04-12T20:04:30.893Z,0.50
2023-04-12T20:07:34.066Z,0.60
2023-04-12T20:10:38.951Z,0.52
2023-04-12T20:13:41.472Z,0.50
2023-04-12T20:16:45.363Z,0.60
2023-04-12T20:19:48.367Z,0.50
2023-04-12T20:22:53.026Z,0.68
2023-04-12T20:25:57.504Z,0.70
2023-04-12T20:29:01.245Z,0.50
2023-04-12T20:32:04.255Z,0.40
2023-04-12T20:35:08.669Z,0.45
2023-04-12T20:38:11.704Z,0.63
2023-04-12T20:41:15.620Z,0.70
2023-04-12T20:44:19.336Z,0.63
2023-04-12T20:47:22.409Z,0.80
2023-04-12T20:50:25.297Z,0.52
2023-04-12T20:53:27.886Z,0.50
2023-04-12T20:56:31.921Z,0.30
2023-04-12T20:59:35.858Z,0.40
2023-04-12T21:02:38.745Z,0.50
2023-04-12T21:05:41.970Z,0.40
2023-04-12T21:08:46.827Z,0.60
2023-04-12T21:11:52.251Z,0.33
2023-04-12T21:14:57.544Z,0.50
2023-04-12T21:18:00.186Z,0.53
2023-04-12T21:21:03.715Z,0.40
2023-04-12T21:24:07.084Z,1.10
2023-04-12T21:27:11.373Z,0.40
2023-04-12T21:30:14.702Z,0.43
2023-04-12T21:33:24.609Z,0.60
2023-04-12T21:36:28.623Z,0.40
2023-04-12T21:39:31.514Z,0.37
2023-04-12T21:42:36.449Z,0.40
2023-04-12T21:45:39.056Z,0.40
2023-04-12T21:48:41.557Z,0.40
2023-04-12T21:51:46.107Z,0.40
2023-04-12T21:54:48.896Z,0.20
2023-04-12T21:57:52.970Z,0.20
2023-04-12T22:00:55.627Z,0.40
2023-04-12T22:03:58.603Z,0.50
2023-04-12T22:07:03.817Z,0.40
2023-04-12T22:10:09.201Z,0.50
2023-04-12T22:13:13.128Z,0.30
2023-04-12T22:16:16.788Z,0.30
2023-04-12T22:22:22.290Z,0.40
2023-04-12T22:25:25.129Z,0.40
2023-04-12T22:28:29.102Z,0.80
2023-04-12T22:31:31.996Z,0.50
2023-04-12T22:34:34.832Z,0.47
2023-04-12T22:37:39.005Z,0.40
2023-04-12T22:40:41.594Z,0.70
2023-04-12T22:43:47.670Z,1.00
2023-04-12T22:46:50.496Z,0.40
2023-04-12T22:49:54.656Z,0.40
2023-04-12T22:52:57.753Z,0.40
2023-04-12T22:56:00.410Z,0.43
2023-04-12T22:59:05.193Z,0.40
2023-04-12T23:02:07.943Z,0.50
2023-04-12T23:05:12.232Z,0.40
2023-04-12T23:08:15.750Z,0.60
2023-04-12T23:11:18.372Z,0.40
2023-04-12T23:14:22.700Z,0.50
2023-04-12T23:17:26.652Z,0.50
2023-04-12T23:20:30.132Z,0.40
2023-04-12T23:23:32.725Z,0.45
2023-04-12T23:26:35.929Z,0.40
2023-04-12T23:29:40.725Z,0.32
2023-04-12T23:32:43.367Z,0.40
2023-04-12T23:35:47.540Z,0.50
2023-04-12T23:38:55.420Z,0.60
2023-04-12T23:41:58.187Z,0.50
2023-04-12T23:45:03.638Z,0.60
2023-04-12T23:48:06.860Z,0.80
2023-04-12T23:51:09.546Z,0.70
2023-04-12T23:54:12.154Z,0.60
2023-04-12T23:57:16.227Z,0.70
